Time;durP1;ratioP1;P1;durP2;ratioP2;P2;SDS_P1;SDS_P2;PMS_P1;PMS_P2;Temp;Humidity;BMP_temperature;BMP_pressure;BME280_temperature;BME280_humidity;BME280_pressure;Samples;Min_cycle;Max_cycle;Signal;HPM_P1;HPM_P2
2023/12/18 00:01:37;;;;;;;0.15;0.15;;;;;;;1.60;100.00;98179.28;5048888;28;20418;-77
2023/12/18 00:04:23;;;;;;;0.15;0.15;;;;;;;1.56;100.00;98177.94;5046734;28;20052;-77
2023/12/18 00:07:09;;;;;;;0.20;0.20;;;;;;;1.48;100.00;98180.47;5049221;28;20584;-77
2023/12/18 00:09:55;;;;;;;0.10;0.10;;;;;;;1.34;100.00;98171.28;5048559;28;20047;-77
2023/12/18 00:12:41;;;;;;;0.20;0.20;;;;;;;1.37;100.00;98165.69;5049140;28;20170;-77
2023/12/18 00:15:27;;;;;;;0.10;0.10;;;;;;;1.49;100.00;98172.44;5048312;28;20521;-77
2023/12/18 00:18:13;;;;;;;0.10;0.10;;;;;;;1.47;100.00;98186.72;5049126;28;20044;-77
2023/12/18 00:20:59;;;;;;;0.20;0.20;;;;;;;1.38;100.00;98175.25;5049539;28;20413;-77
2023/12/18 00:23:44;;;;;;;0.20;0.20;;;;;;;1.35;100.00;98160.56;5048395;28;20037;-77
2023/12/18 00:26:30;;;;;;;0.20;0.20;;;;;;;1.44;100.00;98168.56;5048882;28;20553;-77
2023/12/18 00:29:16;;;;;;;0.10;0.10;;;;;;;1.38;100.00;98170.81;5049377;28;20045;-77
2023/12/18 00:32:06;;;;;;;0.13;0.13;;;;;;;1.28;100.00;98162.13;5048337;28;20600;-77
2023/12/18 00:34:52;;;;;;;0.20;0.20;;;;;;;1.24;100.00;98167.84;5048496;28;20056;-77
2023/12/18 00:37:38;;;;;;;0.20;0.20;;;;;;;1.24;100.00;98150.22;5046908;28;20044;-77
2023/12/18 00:40:24;;;;;;;0.20;0.20;;;;;;;1.18;100.00;98139.47;5048389;28;20401;-77
2023/12/18 00:43:11;;;;;;;0.10;0.10;;;;;;;1.21;100.00;98147.88;5049174;28;20116;-77
2023/12/18 00:45:57;;;;;;;0.20;0.20;;;;;;;1.18;100.00;98161.38;5046101;28;20048;-76
2023/12/18 00:48:43;;;;;;;0.20;0.20;;;;;;;1.10;100.00;98137.56;5036953;28;20063;-76
2023/12/18 00:51:29;;;;;;;0.20;0.20;;;;;;;1.12;100.00;98143.50;5047860;28;20513;-76
2023/12/18 00:54:15;;;;;;;0.10;0.10;;;;;;;1.12;100.00;98146.16;5047597;28;20047;-76
2023/12/18 00:57:00;;;;;;;0.20;0.20;;;;;;;1.05;100.00;98145.06;5048014;28;20800;-76
2023/12/18 00:59:46;;;;;;;0.15;0.15;;;;;;;0.93;100.00;98149.69;5048177;28;20136;-76
2023/12/18 01:02:32;;;;;;;0.20;0.20;;;;;;;0.82;100.00;98145.47;5044153;28;20043;-76
2023/12/18 01:05:18;;;;;;;0.20;0.20;;;;;;;0.90;100.00;98154.44;5047570;28;20028;-76
2023/12/18 01:08:04;;;;;;;0.10;0.10;;;;;;;0.94;100.00;98147.91;5048466;28;20146;-76
2023/12/18 01:10:50;;;;;;;0.20;0.20;;;;;;;0.91;100.00;98143.75;5046458;28;20051;-77
2023/12/18 01:13:36;;;;;;;0.20;0.20;;;;;;;0.85;100.00;98141.69;5047048;28;20401;-76
2023/12/18 01:16:22;;;;;;;0.10;0.10;;;;;;;0.85;100.00;98133.78;5045857;28;20049;-76
2023/12/18 01:19:07;;;;;;;0.10;0.10;;;;;;;0.90;100.00;98128.09;5048014;28;20095;-76
2023/12/18 01:21:53;;;;;;;0.10;0.10;;;;;;;0.95;100.00;98139.03;5045495;28;20040;-76
2023/12/18 01:24:39;;;;;;;0.20;0.20;;;;;;;0.93;100.00;98147.06;5045569;28;20041;-77
2023/12/18 01:27:25;;;;;;;0.20;0.20;;;;;;;0.83;100.00;98148.94;5048204;28;20079;-77
2023/12/18 01:30:12;;;;;;;0.10;0.10;;;;;;;0.73;100.00;98138.44;5048107;28;20572;-76
2023/12/18 01:32:57;;;;;;;0.20;0.20;;;;;;;0.75;100.00;98152.28;5047434;28;21062;-77
2023/12/18 01:35:43;;;;;;;0.20;0.20;;;;;;;0.70;100.00;98153.69;5045924;28;20500;-77
2023/12/18 01:38:29;;;;;;;0.10;0.10;;;;;;;0.69;100.00;98155.50;5047392;28;20108;-77
2023/12/18 01:41:16;;;;;;;0.10;0.10;;;;;;;0.69;100.00;98155.50;5045068;28;20114;-77
2023/12/18 01:44:01;;;;;;;0.20;0.20;;;;;;;0.63;100.00;98153.47;5046015;28;20065;-77
2023/12/18 01:46:50;;;;;;;0.20;0.20;;;;;;;0.63;100.00;98142.09;5047286;28;20320;-77
2023/12/18 01:49:36;;;;;;;0.20;0.20;;;;;;;0.57;100.00;98138.22;5045699;28;20041;-77
2023/12/18 01:52:22;;;;;;;0.20;0.20;;;;;;;0.59;100.00;98133.63;5046833;28;20045;-76
2023/12/18 01:55:11;;;;;;;0.10;0.10;;;;;;;0.62;100.00;98138.59;5048472;28;20443;-77
2023/12/18 01:57:57;;;;;;;0.10;0.10;;;;;;;0.61;100.00;98126.41;5045779;28;20049;-77
2023/12/18 02:00:43;;;;;;;0.10;0.10;;;;;;;0.67;100.00;98131.09;5045095;28;20563;-77
2023/12/18 02:03:30;;;;;;;0.10;0.10;;;;;;;0.77;100.00;98137.16;5032126;28;20055;-77
2023/12/18 02:06:17;;;;;;;0.20;0.20;;;;;;;0.84;100.00;98140.88;5045183;28;20377;-76
2023/12/18 02:09:04;;;;;;;0.10;0.10;;;;;;;0.90;100.00;98139.47;5046022;28;20048;-77
2023/12/18 02:11:50;;;;;;;0.20;0.20;;;;;;;0.97;100.00;98145.81;5045041;28;20098;-76
2023/12/18 02:14:37;;;;;;;0.20;0.20;;;;;;;0.99;100.00;98137.75;5048160;28;20128;-76
2023/12/18 02:17:23;;;;;;;0.20;0.20;;;;;;;1.02;100.00;98140.09;5047465;28;20092;-77
2023/12/18 02:20:09;;;;;;;0.20;0.20;;;;;;;1.10;100.00;98146.28;5031914;28;20069;-77
2023/12/18 02:22:55;;;;;;;0.10;0.10;;;;;;;1.08;100.00;98144.75;5046979;28;20510;-76
2023/12/18 02:25:40;;;;;;;0.20;0.20;;;;;;;1.05;100.00;98142.44;5047290;28;20697;-77
2023/12/18 02:28:29;;;;;;;0.20;0.20;;;;;;;1.05;100.00;98145.91;5045461;28;20157;-77
2023/12/18 02:31:15;;;;;;;0.20;0.20;;;;;;;0.99;100.00;98145.66;5044045;28;20467;-77
2023/12/18 02:34:01;;;;;;;0.10;0.10;;;;;;;1.02;100.00;98153.28;5047069;28;20098;-77
2023/12/18 02:36:49;;;;;;;0.20;0.20;;;;;;;1.08;100.00;98148.22;5045563;28;20101;-77
2023/12/18 02:39:35;;;;;;;0.10;0.10;;;;;;;1.01;100.00;98147.19;5046226;28;20045;-77
2023/12/18 02:42:20;;;;;;;0.20;0.20;;;;;;;0.95;100.00;98141.66;5044887;28;20068;-76
2023/12/18 02:45:07;;;;;;;0.10;0.10;;;;;;;0.90;100.00;98150.00;5051264;28;20039;-77
2023/12/18 02:47:53;;;;;;;0.20;0.20;;;;;;;0.87;100.00;98145.03;5048940;28;20484;-77
2023/12/18 02:50:39;;;;;;;0.15;0.15;;;;;;;0.99;100.00;98148.28;5049372;28;20106;-77
2023/12/18 02:53:24;;;;;;;0.20;0.20;;;;;;;0.97;100.00;98144.97;5049229;28;20040;-77
2023/12/18 02:56:12;;;;;;;0.20;0.20;;;;;;;0.98;100.00;98141.38;5053565;28;20102;-77
2023/12/18 02:58:58;;;;;;;0.20;0.20;;;;;;;0.88;100.00;98138.78;5047495;28;20097;-77
2023/12/18 03:01:44;;;;;;;0.20;0.20;;;;;;;0.88;100.00;98133.50;5049195;28;20037;-77
2023/12/18 03:04:30;;;;;;;0.10;0.10;;;;;;;0.87;100.00;98128.41;5052311;28;20445;-77
2023/12/18 03:07:16;;;;;;;0.20;0.20;;;;;;;0.81;100.00;98125.34;5050032;28;20045;-77
2023/12/18 03:10:02;;;;;;;0.20;0.20;;;;;;;0.74;100.00;98132.19;5048186;28;20378;-77
2023/12/18 03:12:48;;;;;;;0.10;0.10;;;;;;;0.71;100.00;98124.59;5050141;28;20039;-77
2023/12/18 03:15:34;;;;;;;0.20;0.20;;;;;;;0.84;100.00;98117.16;5052360;28;20119;-77
2023/12/18 03:18:20;;;;;;;0.13;0.13;;;;;;;0.98;100.00;98117.63;5050594;28;20610;-77
2023/12/18 03:21:10;;;;;;;0.20;0.20;;;;;;;1.20;100.00;98108.47;5051623;28;20040;-77
2023/12/18 03:23:56;;;;;;;0.10;0.10;;;;;;;1.23;100.00;98103.72;5049265;28;20128;-76
2023/12/18 03:26:42;;;;;;;0.10;0.10;;;;;;;1.31;100.00;98105.63;5049159;28;20079;-77
2023/12/18 03:29:28;;;;;;;0.20;0.20;;;;;;;1.28;100.00;98108.56;5049958;28;20508;-77
2023/12/18 03:32:13;;;;;;;0.10;0.10;;;;;;;1.26;100.00;98113.16;5051365;28;20048;-77
2023/12/18 03:34:59;;;;;;;0.20;0.20;;;;;;;1.25;100.00;98106.25;5052351;28;20037;-77
2023/12/18 03:37:45;;;;;;;0.10;0.10;;;;;;;1.26;100.00;98100.81;5049663;28;20064;-77
2023/12/18 03:40:31;;;;;;;0.20;0.20;;;;;;;1.18;100.00;98108.63;5047376;28;20517;-76
2023/12/18 03:43:17;;;;;;;0.10;0.10;;;;;;;1.16;100.00;98118.47;5048398;28;20044;-76
2023/12/18 03:46:03;;;;;;;0.20;0.20;;;;;;;1.06;100.00;98115.09;5049281;28;20240;-77
2023/12/18 03:48:49;;;;;;;0.10;0.10;;;;;;;0.93;100.00;98112.78;5048012;28;20126;-77
2023/12/18 03:51:35;;;;;;;0.20;0.20;;;;;;;0.85;100.00;98110.06;5050134;28;20052;-76
2023/12/18 03:54:20;;;;;;;0.20;0.20;;;;;;;0.73;100.00;98111.25;5047940;28;20493;-77
2023/12/18 03:57:06;;;;;;;0.20;0.20;;;;;;;0.66;100.00;98110.19;5049940;28;20041;-77
2023/12/18 03:59:52;;;;;;;0.20;0.20;;;;;;;0.52;100.00;98101.78;5039551;28;20127;-76
2023/12/18 04:02:38;;;;;;;0.10;0.10;;;;;;;0.37;100.00;98110.28;5046405;28;20143;-77
2023/12/18 04:05:24;;;;;;;0.20;0.20;;;;;;;0.40;100.00;98094.22;5048273;28;20036;-77
2023/12/18 04:12:11;;;;;;;0.20;0.20;;;;;;;0.50;100.00;98084.47;5045203;28;21118;-77
2023/12/18 04:14:57;;;;;;;0.20;0.20;;;;;;;0.51;100.00;98086.13;5046572;28;20040;-77
2023/12/18 04:17:43;;;;;;;0.20;0.20;;;;;;;0.50;100.00;98087.09;5048568;28;20037;-77
2023/12/18 04:20:29;;;;;;;0.20;0.20;;;;;;;0.49;100.00;98082.81;5048207;28;20049;-77
2023/12/18 04:23:14;;;;;;;0.20;0.20;;;;;;;0.48;100.00;98084.63;5050132;28;20049;-77
2023/12/18 04:26:00;;;;;;;0.20;0.20;;;;;;;0.48;100.00;98096.97;5049571;28;20139;-77
2023/12/18 04:28:46;;;;;;;0.10;0.10;;;;;;;0.39;100.00;98074.94;5047329;28;20051;-76
2023/12/18 04:31:32;;;;;;;0.20;0.20;;;;;;;0.39;100.00;98076.72;5047065;28;20029;-77
2023/12/18 04:34:18;;;;;;;0.20;0.20;;;;;;;0.38;100.00;98081.16;5047321;28;20037;-77
2023/12/18 04:37:04;;;;;;;0.20;0.20;;;;;;;0.35;100.00;98085.91;5050064;28;20604;-77
2023/12/18 04:39:50;;;;;;;0.20;0.20;;;;;;;0.32;100.00;98086.22;5032757;28;20058;-76
2023/12/18 04:42:35;;;;;;;0.20;0.20;;;;;;;0.31;100.00;98079.25;5047434;28;20045;-77
2023/12/18 04:45:21;;;;;;;0.20;0.20;;;;;;;0.23;100.00;98087.88;5050712;28;20516;-78
2023/12/18 04:48:07;;;;;;;0.10;0.10;;;;;;;0.24;100.00;98085.13;5046442;28;20983;-78
2023/12/18 04:50:53;;;;;;;0.17;0.17;;;;;;;0.09;100.00;98078.66;5047492;28;20045;-77
2023/12/18 04:53:40;;;;;;;0.20;0.20;;;;;;;0.04;100.00;98078.25;5049519;28;20041;-78
2023/12/18 04:56:26;;;;;;;0.10;0.10;;;;;;;0.21;100.00;98061.69;5048775;28;20053;-78
2023/12/18 04:59:13;;;;;;;0.10;0.10;;;;;;;0.47;100.00;98048.72;5047771;28;20441;-78
2023/12/18 05:01:59;;;;;;;0.10;0.10;;;;;;;0.66;100.00;98044.31;5047281;28;20940;-77
2023/12/18 05:04:45;;;;;;;0.10;0.10;;;;;;;0.72;100.00;98047.19;5049451;28;20049;-77
2023/12/18 05:07:31;;;;;;;0.20;0.20;;;;;;;0.72;100.00;98049.00;5050210;28;20781;-78
2023/12/18 05:10:17;;;;;;;0.20;0.20;;;;;;;0.67;100.00;98052.06;5050519;28;20582;-78
2023/12/18 05:13:03;;;;;;;0.10;0.10;;;;;;;0.57;100.00;98053.09;5050036;28;20037;-78
2023/12/18 05:15:51;;;;;;;0.10;0.10;;;;;;;0.39;100.00;98055.66;5050082;28;20462;-78
2023/12/18 05:18:37;;;;;;;0.20;0.20;;;;;;;0.11;100.00;98041.66;5050271;28;20043;-77
2023/12/18 05:25:31;;;;;;;0.20;0.20;;;;;;;0.07;100.00;98062.16;5047021;28;20128;-79
2023/12/18 05:28:16;;;;;;;0.10;0.10;;;;;;;0.05;100.00;98068.53;5049951;28;20043;-79
2023/12/18 05:31:02;;;;;;;0.20;0.20;;;;;;;0.06;100.00;98070.22;5038034;28;20115;-76
2023/12/18 05:33:48;;;;;;;0.13;0.13;;;;;;;-0.12;100.00;98073.56;5049362;28;20060;-77
2023/12/18 05:36:34;;;;;;;0.10;0.10;;;;;;;-0.18;100.00;98068.06;5048869;28;20035;-77
2023/12/18 05:39:20;;;;;;;0.20;0.20;;;;;;;-0.18;100.00;98068.06;5048917;28;20036;-76
2023/12/18 05:42:06;;;;;;;0.10;0.10;;;;;;;-0.18;100.00;98068.88;5052228;28;20032;-76
2023/12/18 05:44:52;;;;;;;0.10;0.10;;;;;;;-0.23;100.00;98059.75;5049359;28;20033;-77
2023/12/18 05:47:38;;;;;;;0.20;0.20;;;;;;;-0.19;100.00;98046.16;5047304;28;20124;-76
2023/12/18 05:50:24;;;;;;;0.10;0.10;;;;;;;-0.07;100.00;98049.47;5049978;28;20500;-76
2023/12/18 05:53:09;;;;;;;0.20;0.20;;;;;;;-0.06;100.00;98051.13;5051286;28;20040;-76
2023/12/18 05:55:55;;;;;;;0.20;0.20;;;;;;;-0.09;100.00;98054.84;5041175;28;20028;-76
2023/12/18 05:58:41;;;;;;;0.20;0.20;;;;;;;-0.09;100.00;98052.22;5047648;28;20383;-77
2023/12/18 06:01:30;;;;;;;0.20;0.20;;;;;;;-0.15;100.00;98057.25;5037800;28;20043;-77
2023/12/18 06:04:16;;;;;;;0.20;0.20;;;;;;;-0.16;100.00;98066.09;5035645;28;20055;-77
2023/12/18 06:07:02;;;;;;;0.20;0.20;;;;;;;-0.19;100.00;98075.13;5037472;28;20052;-78
2023/12/18 06:09:48;;;;;;;0.20;0.20;;;;;;;-0.24;100.00;98073.88;5035461;28;20044;-77
2023/12/18 06:12:34;;;;;;;0.15;0.15;;;;;;;-0.37;100.00;98068.94;5048355;28;20068;-77
2023/12/18 06:15:20;;;;;;;0.10;0.10;;;;;;;-0.49;100.00;98068.22;5048501;28;20087;-77
2023/12/18 06:18:06;;;;;;;0.20;0.20;;;;;;;-0.68;100.00;98061.19;5048805;28;20079;-77
2023/12/18 06:20:51;;;;;;;0.20;0.20;;;;;;;-0.60;100.00;98066.59;5049664;28;20044;-77
2023/12/18 06:23:38;;;;;;;0.20;0.20;;;;;;;-0.54;100.00;98062.59;5037588;28;20032;-77
2023/12/18 06:26:24;;;;;;;0.17;0.17;;;;;;;-0.59;100.00;98049.00;5047643;28;20056;-78
2023/12/18 06:29:10;;;;;;;0.10;0.10;;;;;;;-0.37;100.00;98061.88;5046961;28;20040;-77
2023/12/18 06:31:55;;;;;;;0.20;0.20;;;;;;;-0.35;100.00;98086.22;5049721;28;20098;-77
2023/12/18 06:34:42;;;;;;;0.10;0.10;;;;;;;-0.52;100.00;98088.72;5049648;28;20467;-77
2023/12/18 06:37:28;;;;;;;0.20;0.20;;;;;;;-0.75;100.00;98089.00;5049034;28;20040;-77
2023/12/18 06:40:14;;;;;;;0.10;0.10;;;;;;;-0.81;100.00;98089.56;5048356;28;20047;-77
2023/12/18 06:43:00;;;;;;;0.15;0.15;;;;;;;-0.78;100.00;98096.31;5048716;28;20359;-77
2023/12/18 06:45:46;;;;;;;0.17;0.17;;;;;;;-0.71;100.00;98081.66;5046531;28;20045;-78
2023/12/18 06:48:32;;;;;;;0.10;0.10;;;;;;;-0.70;100.00;98088.56;5048743;28;20044;-77
2023/12/18 06:51:18;;;;;;;0.20;0.20;;;;;;;-0.80;100.00;98079.88;5047877;28;20037;-78
2023/12/18 06:54:07;;;;;;;0.20;0.20;;;;;;;-0.76;100.00;98089.16;5044038;28;20039;-78
2023/12/18 06:56:53;;;;;;;0.20;0.20;;;;;;;-0.74;100.00;98095.91;5047598;28;20962;-78
2023/12/18 06:59:38;;;;;;;0.20;0.20;;;;;;;-0.74;100.00;98097.72;5045898;28;20064;-78
2023/12/18 07:02:26;;;;;;;0.20;0.20;;;;;;;-0.78;100.00;98084.00;5047204;28;20076;-77
2023/12/18 07:05:16;;;;;;;0.20;0.20;;;;;;;-0.86;100.00;98084.72;5047290;28;20037;-77
2023/12/18 07:08:01;;;;;;;0.20;0.20;;;;;;;-0.83;100.00;98080.16;5046961;28;20119;-78
2023/12/18 07:10:48;;;;;;;0.20;0.20;;;;;;;-0.76;100.00;98081.25;5047639;28;20561;-78
2023/12/18 07:13:34;;;;;;;0.20;0.20;;;;;;;-0.74;100.00;98079.31;5048007;28;20048;-77
2023/12/18 07:16:23;;;;;;;0.20;0.20;;;;;;;-0.69;100.00;98083.19;5046640;28;20056;-78
2023/12/18 07:19:10;;;;;;;0.20;0.20;;;;;;;-0.68;100.00;98091.91;5046875;28;20052;-78
2023/12/18 07:21:56;;;;;;;0.20;0.20;;;;;;;-0.72;100.00;98080.84;5046974;28;20040;-78
2023/12/18 07:24:42;;;;;;;0.10;0.10;;;;;;;-0.73;100.00;98097.56;5047745;28;20383;-79
2023/12/18 07:27:28;;;;;;;0.20;0.20;;;;;;;-0.75;100.00;98094.25;5047999;28;20040;-79
2023/12/18 07:30:14;;;;;;;0.20;0.20;;;;;;;-0.77;100.00;98092.75;5049625;28;20047;-79
2023/12/18 07:33:00;;;;;;;0.20;0.20;;;;;;;-0.73;100.00;98086.22;5050992;28;20036;-78
2023/12/18 07:35:46;;;;;;;0.17;0.17;;;;;;;-0.73;100.00;98088.88;5053241;28;20040;-79
2023/12/18 07:38:32;;;;;;;0.10;0.10;;;;;;;-0.68;100.00;98076.16;5046359;28;20098;-78
2023/12/18 07:41:18;;;;;;;0.10;0.10;;;;;;;-0.65;100.00;98081.94;5036672;28;20504;-79
2023/12/18 07:44:04;;;;;;;0.10;0.10;;;;;;;-0.62;100.00;98086.13;5051849;28;20044;-79
2023/12/18 07:46:51;;;;;;;0.13;0.13;;;;;;;-0.67;100.00;98072.53;5050121;28;20105;-79
2023/12/18 07:49:37;;;;;;;0.10;0.10;;;;;;;-0.49;100.00;98077.91;5050145;28;20041;-79
2023/12/18 07:52:23;;;;;;;0.20;0.20;;;;;;;-0.39;100.00;98079.59;5049305;28;20055;-76
2023/12/18 07:55:09;;;;;;;0.17;0.17;;;;;;;-0.41;100.00;98083.31;5042085;28;20470;-77
2023/12/18 07:57:55;;;;;;;0.20;0.20;;;;;;;-0.42;100.00;98079.03;5052792;28;20956;-78
2023/12/18 08:00:41;;;;;;;0.20;0.20;;;;;;;-0.30;100.00;98088.44;5048570;28;20095;-79
2023/12/18 08:03:29;;;;;;;0.20;0.20;;;;;;;-0.28;100.00;98084.69;5051629;28;20394;-80
2023/12/18 08:06:15;;;;;;;0.20;0.20;;;;;;;-0.33;100.00;98097.41;5049638;28;20033;-80
2023/12/18 08:09:01;;;;;;;0.20;0.20;;;;;;;-0.33;100.00;98094.78;5050727;28;21100;-80
2023/12/18 08:11:47;;;;;;;0.20;0.20;;;;;;;-0.25;100.00;98093.25;5021851;28;20071;-79
2023/12/18 08:14:33;;;;;;;0.17;0.17;;;;;;;-0.17;100.00;98090.75;5051633;28;20393;-80
2023/12/18 08:17:18;;;;;;;0.20;0.20;;;;;;;-0.07;100.00;98092.41;5050715;28;20033;-80
2023/12/18 08:20:06;;;;;;;0.10;0.10;;;;;;;-0.02;100.00;98084.91;5050309;28;20582;-80
2023/12/18 08:22:52;;;;;;;0.10;0.10;;;;;;;0.06;100.00;98086.00;5048560;28;20171;-80
2023/12/18 08:25:38;;;;;;;0.10;0.10;;;;;;;0.14;100.00;98076.41;5048924;28;20562;-80
2023/12/18 08:28:24;;;;;;;0.20;0.20;;;;;;;0.25;100.00;98076.25;5048458;28;20433;-80
2023/12/18 08:31:11;;;;;;;0.20;0.20;;;;;;;0.33;100.00;98086.06;5048498;28;20036;-79
2023/12/18 08:33:57;;;;;;;0.13;0.13;;;;;;;0.37;100.00;98081.31;5048884;28;20709;-80
2023/12/18 08:36:43;;;;;;;0.20;0.20;;;;;;;0.46;100.00;98083.91;5049145;28;20048;-81
2023/12/18 08:39:29;;;;;;;0.10;0.10;;;;;;;0.51;100.00;98083.47;5051536;28;20044;-81
2023/12/18 08:42:14;;;;;;;0.20;0.20;;;;;;;0.54;100.00;98077.91;5049915;28;20111;-80
2023/12/18 08:45:00;;;;;;;0.20;0.20;;;;;;;0.61;100.00;98081.63;5035425;28;20127;-80
2023/12/18 08:47:46;;;;;;;0.20;0.20;;;;;;;0.63;100.00;98081.50;5036497;28;20033;-80
2023/12/18 08:50:32;;;;;;;0.20;0.20;;;;;;;0.69;100.00;98073.81;5050661;28;20045;-80
2023/12/18 08:53:18;;;;;;;0.20;0.20;;;;;;;0.75;100.00;98081.13;5050544;28;20504;-80
2023/12/18 08:56:04;;;;;;;0.20;0.20;;;;;;;0.80;100.00;98085.97;5049288;28;20037;-80
2023/12/18 08:58:52;;;;;;;0.20;0.20;;;;;;;0.85;100.00;98088.97;5047130;28;20048;-80
2023/12/18 09:01:38;;;;;;;0.20;0.20;;;;;;;0.89;100.00;98093.00;5050013;28;20519;-77
2023/12/18 09:04:24;;;;;;;0.20;0.20;;;;;;;0.92;100.00;98089.22;5049102;28;20145;-79
2023/12/18 09:07:12;;;;;;;0.20;0.20;;;;;;;1.05;100.00;98079.16;5033147;28;20044;-78
2023/12/18 09:09:58;;;;;;;0.20;0.20;;;;;;;1.26;100.00;98076.25;5049648;28;20040;-79
2023/12/18 09:12:44;;;;;;;0.20;0.20;;;;;;;1.76;100.00;98087.06;5047659;28;20072;-79
2023/12/18 09:15:30;;;;;;;0.30;0.30;;;;;;;2.77;100.00;98084.66;5050092;28;20376;-79
2023/12/18 09:18:16;;;;;;;0.30;0.30;;;;;;;4.32;100.00;98071.50;5035826;28;20477;-79
2023/12/18 09:21:02;;;;;;;0.40;0.35;;;;;;;6.15;100.00;98069.09;5049960;28;20040;-79
2023/12/18 09:23:49;;;;;;;0.30;0.30;;;;;;;7.73;100.00;98077.38;5049274;28;20082;-78
2023/12/18 09:26:35;;;;;;;0.40;0.40;;;;;;;8.63;100.00;98069.44;5048407;28;20123;-79
2023/12/18 09:29:22;;;;;;;0.38;0.30;;;;;;;9.19;100.00;98068.50;5048659;28;20402;-79
2023/12/18 09:32:10;;;;;;;0.40;0.40;;;;;;;8.68;100.00;98070.72;5047460;28;20029;-79
2023/12/18 09:34:55;;;;;;;0.30;0.30;;;;;;;8.99;100.00;98057.72;5049771;28;20043;-80
2023/12/18 09:37:41;;;;;;;0.50;0.40;;;;;;;10.20;100.00;98047.84;5047263;28;20032;-79
2023/12/18 09:40:27;;;;;;;0.40;0.40;;;;;;;10.92;99.53;98048.72;5040412;28;20040;-80
2023/12/18 09:43:17;;;;;;;0.30;0.30;;;;;;;11.71;82.31;98052.84;5047986;28;20041;-80
2023/12/18 09:46:03;;;;;;;0.30;0.30;;;;;;;11.80;84.06;98053.41;5046368;28;20048;-80
2023/12/18 09:48:50;;;;;;;0.45;0.40;;;;;;;12.85;83.77;98043.56;5047760;28;20051;-80
2023/12/18 09:51:38;;;;;;;0.32;0.30;;;;;;;12.95;68.85;98056.47;5047257;28;20045;-80
2023/12/18 09:54:28;;;;;;;0.30;0.30;;;;;;;14.56;64.25;98046.69;5032981;28;20158;-80
2023/12/18 09:57:17;;;;;;;0.30;0.30;;;;;;;14.99;56.28;98040.84;5049160;28;20421;-80
2023/12/18 10:00:05;;;;;;;0.20;0.20;;;;;;;16.48;59.21;98051.34;5049058;28;20047;-80
2023/12/18 10:02:58;;;;;;;0.30;0.30;;;;;;;17.81;54.17;98032.19;5036660;28;20055;-81
2023/12/18 10:05:45;;;;;;;0.28;0.28;;;;;;;17.17;49.03;98035.56;5047510;28;20719;-82
2023/12/18 10:08:31;;;;;;;0.30;0.30;;;;;;;17.74;55.46;98034.28;5047032;28;20044;-80
2023/12/18 10:11:25;;;;;;;0.20;0.20;;;;;;;17.91;46.02;98021.47;5050203;28;20124;-80
2023/12/18 10:14:14;;;;;;;0.20;0.20;;;;;;;17.84;59.68;98018.16;5051037;28;20036;-81
2023/12/18 10:17:00;;;;;;;0.20;0.20;;;;;;;18.83;52.75;98022.09;5048969;28;20776;-80
2023/12/18 10:19:46;;;;;;;0.20;0.20;;;;;;;20.01;49.40;98015.94;5047944;28;20053;-81
2023/12/18 10:22:32;;;;;;;0.30;0.30;;;;;;;19.69;43.33;98014.31;5049248;28;20040;-80
2023/12/18 10:25:22;;;;;;;0.28;0.28;;;;;;;18.64;57.10;98021.72;5046383;28;20033;-81
2023/12/18 10:28:08;;;;;;;0.20;0.20;;;;;;;19.96;42.31;98014.03;5013188;28;20051;-81
2023/12/18 10:30:55;;;;;;;0.20;0.20;;;;;;;20.28;46.08;98019.19;5044727;28;20051;-79
2023/12/18 10:33:42;;;;;;;0.20;0.20;;;;;;;21.39;42.55;98009.09;5047258;28;20052;-80
2023/12/18 10:36:33;;;;;;;0.30;0.30;;;;;;;21.93;37.89;97997.28;5046202;28;20774;-80
2023/12/18 10:39:21;;;;;;;0.20;0.20;;;;;;;20.94;37.35;98003.84;5047664;28;20468;-80
2023/12/18 10:42:27;;;;;;;0.20;0.20;;;;;;;22.45;33.74;98003.97;5039424;28;20169;-79
2023/12/18 10:45:16;;;;;;;0.20;0.20;;;;;;;23.50;38.51;97996.75;5048086;28;20127;-80
2023/12/18 10:48:07;;;;;;;0.13;0.13;;;;;;;23.72;37.01;97990.69;5044489;28;20409;-80
2023/12/18 10:50:56;;;;;;;0.20;0.20;;;;;;;24.37;31.38;97989.94;5046514;28;20132;-81
2023/12/18 10:53:42;;;;;;;0.20;0.20;;;;;;;24.32;30.84;97982.63;5046015;28;20041;-78
2023/12/18 10:56:29;;;;;;;0.10;0.10;;;;;;;24.89;31.11;97982.38;5047780;28;20288;-80
2023/12/18 10:59:17;;;;;;;0.20;0.20;;;;;;;24.37;30.57;97979.00;5045228;28;20041;-80
2023/12/18 11:02:06;;;;;;;0.13;0.13;;;;;;;23.14;29.38;97977.28;5038790;28;20037;-80
2023/12/18 11:04:54;;;;;;;0.20;0.20;;;;;;;23.37;33.05;97975.63;5050779;28;20122;-80
2023/12/18 11:07:40;;;;;;;0.17;0.17;;;;;;;22.96;29.48;97970.69;5044913;28;20051;-79
2023/12/18 11:10:26;;;;;;;0.20;0.20;;;;;;;23.47;30.49;97963.72;5039672;28;20041;-79
2023/12/18 11:13:29;;;;;;;0.20;0.20;;;;;;;23.80;28.66;97961.88;5050196;28;20361;-79
2023/12/18 11:16:25;;;;;;;0.10;0.10;;;;;;;22.90;31.35;97962.88;5044750;28;20631;-80
2023/12/18 11:19:30;;;;;;;0.10;0.10;;;;;;;23.86;30.88;97961.50;5049403;28;20048;-80
2023/12/18 11:22:16;;;;;;;0.10;0.10;;;;;;;25.63;32.43;97952.88;5043489;28;20044;-80
2023/12/18 11:25:04;;;;;;;0.20;0.20;;;;;;;24.74;28.11;97940.50;5052248;28;20509;-80
2023/12/18 11:27:52;;;;;;;0.10;0.10;;;;;;;23.48;30.12;97951.69;5053531;28;20041;-80
2023/12/18 11:30:43;;;;;;;0.10;0.10;;;;;;;24.24;31.65;97946.94;5050497;28;20160;-80
2023/12/18 11:33:29;;;;;;;0.20;0.20;;;;;;;22.87;31.84;97950.59;5048442;28;20052;-81
2023/12/18 11:36:17;;;;;;;0.20;0.20;;;;;;;21.77;34.98;97944.03;5052168;28;20037;-81
2023/12/18 11:39:03;;;;;;;0.20;0.20;;;;;;;21.90;32.66;97943.38;5049337;28;20094;-80
2023/12/18 11:41:49;;;;;;;0.20;0.20;;;;;;;22.03;34.15;97941.09;5052103;28;20044;-80
2023/12/18 11:44:37;;;;;;;0.20;0.20;;;;;;;21.03;33.22;97940.41;5050567;28;20119;-80
2023/12/18 11:47:23;;;;;;;0.10;0.10;;;;;;;21.10;33.28;97937.38;5050735;28;20067;-80
2023/12/18 11:50:10;;;;;;;0.10;0.10;;;;;;;21.91;31.81;97916.94;5048917;28;20127;-80
2023/12/18 11:52:56;;;;;;;0.10;0.10;;;;;;;20.99;33.07;97917.56;5049841;28;20037;-80
2023/12/18 11:55:54;;;;;;;0.10;0.10;;;;;;;21.39;31.58;97916.53;5051193;28;20735;-80
2023/12/18 11:58:43;;;;;;;0.20;0.20;;;;;;;21.42;32.88;97913.25;5048789;28;20048;-79
2023/12/18 12:01:30;;;;;;;0.15;0.15;;;;;;;20.05;32.53;97913.78;5050417;28;20037;-81
2023/12/18 12:04:16;;;;;;;0.20;0.20;;;;;;;19.67;33.67;97913.25;5044012;28;20037;-80
2023/12/18 12:07:02;;;;;;;0.20;0.20;;;;;;;20.09;33.92;97911.34;5038317;28;20033;-81
2023/12/18 12:10:00;;;;;;;0.15;0.15;;;;;;;18.40;35.48;97907.47;5048068;28;20398;-80
2023/12/18 12:12:57;;;;;;;0.20;0.20;;;;;;;19.53;33.99;97904.00;5050883;28;20091;-80
2023/12/18 12:16:00;;;;;;;0.15;0.15;;;;;;;20.75;33.07;97890.22;5048454;28;20489;-80
2023/12/18 12:18:50;;;;;;;0.10;0.10;;;;;;;21.68;32.06;97891.25;5048582;28;20516;-79
2023/12/18 12:21:37;;;;;;;0.13;0.13;;;;;;;21.09;31.38;97881.34;5048236;28;20048;-80
2023/12/18 12:24:23;;;;;;;0.20;0.20;;;;;;;20.82;31.94;97879.84;5049160;28;20037;-80
2023/12/18 12:27:09;;;;;;;0.20;0.20;;;;;;;22.25;31.17;97879.56;5050684;28;20148;-81
2023/12/18 12:29:55;;;;;;;0.20;0.20;;;;;;;21.85;31.74;97875.31;5048347;28;20541;-81
2023/12/18 12:32:41;;;;;;;0.20;0.20;;;;;;;23.68;30.66;97868.66;5050581;28;20159;-80
2023/12/18 12:35:27;;;;;;;0.20;0.20;;;;;;;23.20;28.74;97863.38;5050616;28;20064;-80
2023/12/18 12:38:16;;;;;;;0.10;0.10;;;;;;;20.86;29.83;97861.88;5049230;28;20124;-81
2023/12/18 12:41:03;;;;;;;0.00;0.00;;;;;;;18.46;34.07;97873.91;5050719;28;20044;-81
2023/12/18 12:43:49;;;;;;;0.00;0.00;;;;;;;14.71;44.03;97886.19;5050234;28;20052;-80
2023/12/18 12:46:35;;;;;;;0.00;0.00;;;;;;;13.36;52.28;97879.16;5048301;28;20047;-79
2023/12/18 12:49:21;;;;;;;0.08;0.08;;;;;;;12.18;71.89;97885.09;5048512;28;20033;-81
2023/12/18 12:52:07;;;;;;;0.03;0.03;;;;;;;11.10;86.83;97880.06;5048528;28;20123;-79
2023/12/18 12:54:53;;;;;;;0.10;0.10;;;;;;;10.31;93.24;97876.00;5049246;28;20035;-79
2023/12/18 12:57:39;;;;;;;0.10;0.10;;;;;;;9.98;97.54;97881.44;5050273;28;20404;-79
2023/12/18 13:00:25;;;;;;;0.20;0.20;;;;;;;9.42;100.00;97875.78;5038153;28;20088;-78
2023/12/18 13:03:11;;;;;;;0.10;0.10;;;;;;;9.56;100.00;97872.03;5048684;28;20090;-78
2023/12/18 13:06:00;;;;;;;0.10;0.10;;;;;;;9.38;100.00;97869.19;5050305;28;20041;-78
2023/12/18 13:08:46;;;;;;;0.13;0.13;;;;;;;9.55;100.00;97881.09;5048107;28;20047;-78
2023/12/18 13:11:37;;;;;;;0.10;0.10;;;;;;;9.56;98.41;97869.38;5051285;28;20386;-78